Time;durP1;ratioP1;P1;durP2;ratioP2;P2;SDS_P1;SDS_P2;PMS_P1;PMS_P2;Temp;Humidity;BMP_temperature;BMP_pressure;BME280_temperature;BME280_humidity;BME280_pressure;Samples;Min_cycle;Max_cycle;Signal;HPM_P1;HPM_P2
2024/01/09 00:01:56;;;;;;;20.50;10.07;;;;;;;;;;5049328;28;20429;-77
2024/01/09 00:04:22;;;;;;;20.27;10.65;;;;;;;;;;5043529;28;20040;-77
2024/01/09 00:06:49;;;;;;;21.08;9.07;;;;;;;;;;5037587;28;20033;-76
2024/01/09 00:09:15;;;;;;;19.92;10.13;;;;;;;;;;5042331;28;20017;-78
2024/01/09 00:11:41;;;;;;;20.15;10.30;;;;;;;;;;5035765;28;20421;-77
2024/01/09 00:14:08;;;;;;;22.15;10.57;;;;;;;;;;5035821;28;20084;-77
2024/01/09 00:16:34;;;;;;;23.77;10.50;;;;;;;;;;5045703;28;20021;-77
2024/01/09 00:19:00;;;;;;;22.23;9.80;;;;;;;;;;5037160;28;20022;-77
2024/01/09 00:21:26;;;;;;;25.75;10.55;;;;;;;;;;5038039;28;20081;-77
2024/01/09 00:23:52;;;;;;;22.85;10.77;;;;;;;;;;5036446;28;20427;-77
2024/01/09 00:26:19;;;;;;;20.80;10.50;;;;;;;;;;5049735;28;20417;-77
2024/01/09 00:28:46;;;;;;;25.58;10.45;;;;;;;;;;5046667;28;20022;-78
2024/01/09 00:31:13;;;;;;;20.98;10.43;;;;;;;;;;5063372;28;20514;-76
2024/01/09 00:33:39;;;;;;;24.83;11.23;;;;;;;;;;5058214;28;20025;-77
2024/01/09 00:36:05;;;;;;;21.08;10.43;;;;;;;;;;5064832;28;20048;-78
2024/01/09 00:38:31;;;;;;;23.30;11.10;;;;;;;;;;5056110;28;20025;-77
2024/01/09 00:40:57;;;;;;;26.63;12.35;;;;;;;;;;5044791;28;20029;-77
2024/01/09 00:43:24;;;;;;;26.75;11.02;;;;;;;;;;5045536;28;20113;-78
2024/01/09 00:45:50;;;;;;;23.27;10.57;;;;;;;;;;5044913;28;20029;-78
2024/01/09 00:48:16;;;;;;;27.05;11.25;;;;;;;;;;5037473;28;20041;-77
2024/01/09 00:50:42;;;;;;;22.15;11.25;;;;;;;;;;5053075;28;20029;-77
2024/01/09 00:53:09;;;;;;;29.05;11.75;;;;;;;;;;5050270;28;20175;-77
2024/01/09 00:55:35;;;;;;;23.98;11.77;;;;;;;;;;5041335;28;20021;-76
2024/01/09 00:58:01;;;;;;;23.35;10.45;;;;;;;;;;5050193;28;20104;-78
2024/01/09 01:00:27;;;;;;;24.67;10.02;;;;;;;;;;5052278;28;20022;-76
2024/01/09 01:02:53;;;;;;;27.27;12.32;;;;;;;;;;5053962;28;20021;-78
2024/01/09 01:05:19;;;;;;;28.48;12.77;;;;;;;;;;5071710;28;20017;-77
2024/01/09 01:07:46;;;;;;;29.95;11.90;;;;;;;;;;5053714;28;20053;-77
2024/01/09 01:10:13;;;;;;;23.50;12.27;;;;;;;;;;5047216;28;20065;-77
2024/01/09 01:12:39;;;;;;;25.27;12.18;;;;;;;;;;5046905;28;20055;-78
2024/01/09 01:15:06;;;;;;;22.15;9.75;;;;;;;;;;5044729;28;20025;-76
2024/01/09 01:17:32;;;;;;;19.23;10.55;;;;;;;;;;5037044;28;20030;-76
2024/01/09 01:19:58;;;;;;;27.30;12.65;;;;;;;;;;5049117;28;20029;-78
2024/01/09 01:22:24;;;;;;;25.23;12.82;;;;;;;;;;5049753;28;20022;-77
2024/01/09 01:24:50;;;;;;;26.17;12.30;;;;;;;;;;5065793;28;20135;-76
2024/01/09 01:27:17;;;;;;;28.17;11.52;;;;;;;;;;5048244;28;20037;-77
2024/01/09 01:29:44;;;;;;;29.13;13.32;;;;;;;;;;5058687;28;20036;-77
2024/01/09 01:32:10;;;;;;;25.73;11.15;;;;;;;;;;5050130;28;20079;-77
2024/01/09 01:34:40;;;;;;;25.92;12.05;;;;;;;;;;5045210;28;20030;-78
2024/01/09 01:37:06;;;;;;;24.58;12.38;;;;;;;;;;5049075;28;20029;-77
2024/01/09 01:39:32;;;;;;;24.52;11.00;;;;;;;;;;5058992;28;20032;-77
2024/01/09 01:41:59;;;;;;;24.67;12.90;;;;;;;;;;5045326;28;20030;-77
2024/01/09 01:44:25;;;;;;;27.08;13.35;;;;;;;;;;5050998;28;20603;-78
2024/01/09 01:46:51;;;;;;;26.13;10.98;;;;;;;;;;5042793;28;20032;-77
2024/01/09 01:49:18;;;;;;;25.20;11.85;;;;;;;;;;5042634;28;20014;-78
2024/01/09 01:51:45;;;;;;;30.63;12.77;;;;;;;;;;5058004;28;20110;-77
2024/01/09 01:54:12;;;;;;;29.08;12.80;;;;;;;;;;5056959;28;20482;-77
2024/01/09 01:56:39;;;;;;;33.00;12.40;;;;;;;;;;5036990;28;20514;-77
2024/01/09 01:59:05;;;;;;;28.15;12.35;;;;;;;;;;5036828;28;20021;-78
2024/01/09 02:01:31;;;;;;;34.67;14.07;;;;;;;;;;5054079;28;20488;-77
2024/01/09 02:03:58;;;;;;;24.27;12.10;;;;;;;;;;5043379;28;20025;-76
2024/01/09 02:06:24;;;;;;;27.88;12.27;;;;;;;;;;5059069;28;20038;-77
2024/01/09 02:08:51;;;;;;;31.52;13.77;;;;;;;;;;5052098;28;20063;-77
2024/01/09 02:11:17;;;;;;;25.40;12.35;;;;;;;;;;5048376;28;20013;-76
2024/01/09 02:13:43;;;;;;;24.85;12.65;;;;;;;;;;5058476;28;20033;-76
2024/01/09 02:16:09;;;;;;;26.35;12.57;;;;;;;;;;5058810;28;20048;-75
2024/01/09 02:18:35;;;;;;;27.10;13.02;;;;;;;;;;5059071;28;20073;-76
2024/01/09 02:21:04;;;;;;;31.25;14.68;;;;;;;;;;5051113;28;20021;-75
2024/01/09 02:23:31;;;;;;;32.08;13.57;;;;;;;;;;5064155;28;20040;-76
2024/01/09 02:25:57;;;;;;;28.40;13.55;;;;;;;;;;5070218;28;20078;-76
2024/01/09 02:28:23;;;;;;;29.80;14.07;;;;;;;;;;5055057;28;20040;-76
2024/01/09 02:30:53;;;;;;;24.77;11.60;;;;;;;;;;5044258;28;20056;-76
2024/01/09 02:33:19;;;;;;;26.58;13.57;;;;;;;;;;5050987;28;20024;-78
2024/01/09 02:35:45;;;;;;;32.70;13.98;;;;;;;;;;5054147;28;20041;-77
2024/01/09 02:38:12;;;;;;;34.10;13.70;;;;;;;;;;5043835;28;20026;-78
2024/01/09 02:40:38;;;;;;;29.45;13.80;;;;;;;;;;5049112;28;20025;-76
2024/01/09 02:43:05;;;;;;;31.48;15.10;;;;;;;;;;5048545;28;20071;-77
2024/01/09 02:45:31;;;;;;;26.77;12.40;;;;;;;;;;5051117;28;20025;-77
2024/01/09 02:47:57;;;;;;;29.70;12.57;;;;;;;;;;5037816;28;20033;-77
2024/01/09 02:50:24;;;;;;;25.50;12.55;;;;;;;;;;5052956;28;20029;-77
2024/01/09 02:52:50;;;;;;;35.67;14.93;;;;;;;;;;5041168;28;20477;-76
2024/01/09 02:55:16;;;;;;;27.10;13.05;;;;;;;;;;5041511;28;20035;-76
2024/01/09 02:57:42;;;;;;;35.20;14.20;;;;;;;;;;5040301;28;20076;-77
2024/01/09 03:00:09;;;;;;;30.27;13.40;;;;;;;;;;5041187;28;20036;-76
2024/01/09 03:02:35;;;;;;;30.98;14.07;;;;;;;;;;5044707;28;20036;-77
2024/01/09 03:05:01;;;;;;;29.33;12.73;;;;;;;;;;5046832;28;20033;-77
2024/01/09 03:07:28;;;;;;;31.70;15.25;;;;;;;;;;5047860;28;20032;-77
2024/01/09 03:09:54;;;;;;;30.08;14.50;;;;;;;;;;5057536;28;20021;-76
2024/01/09 03:12:20;;;;;;;32.70;14.70;;;;;;;;;;5050428;28;20024;-76
2024/01/09 03:14:46;;;;;;;29.60;13.32;;;;;;;;;;5049536;28;20491;-77
2024/01/09 03:17:12;;;;;;;34.55;13.98;;;;;;;;;;5052115;28;20072;-76
2024/01/09 03:19:38;;;;;;;28.55;13.35;;;;;;;;;;5052532;28;20020;-77
2024/01/09 03:22:04;;;;;;;31.92;14.07;;;;;;;;;;5062771;28;20045;-77
2024/01/09 03:24:31;;;;;;;28.55;13.38;;;;;;;;;;5044012;28;20070;-77
2024/01/09 03:26:57;;;;;;;27.98;12.55;;;;;;;;;;5035456;28;20121;-77
2024/01/09 03:29:23;;;;;;;27.00;12.40;;;;;;;;;;5045533;28;20526;-77
2024/01/09 03:31:50;;;;;;;33.00;15.57;;;;;;;;;;5044921;28;20040;-77
2024/01/09 03:34:16;;;;;;;26.17;12.57;;;;;;;;;;5047373;28;20060;-78
2024/01/09 03:36:46;;;;;;;30.52;13.82;;;;;;;;;;5038156;28;20473;-76
2024/01/09 03:39:14;;;;;;;32.80;13.30;;;;;;;;;;5055416;28;20025;-77
2024/01/09 03:41:42;;;;;;;29.83;13.57;;;;;;;;;;5042144;28;20032;-77
2024/01/09 03:44:08;;;;;;;31.40;14.10;;;;;;;;;;5035696;28;20492;-78
2024/01/09 03:46:34;;;;;;;29.88;14.13;;;;;;;;;;5034960;28;20021;-77
2024/01/09 03:49:00;;;;;;;26.60;12.90;;;;;;;;;;5033303;28;20032;-77
2024/01/09 03:51:26;;;;;;;32.72;13.90;;;;;;;;;;5036439;28;20029;-77
2024/01/09 03:53:53;;;;;;;31.38;13.63;;;;;;;;;;5038710;28;20041;-75
2024/01/09 03:56:19;;;;;;;27.73;13.30;;;;;;;;;;5037746;28;20476;-76
2024/01/09 03:58:45;;;;;;;27.48;12.93;;;;;;;;;;5035971;28;20052;-77
2024/01/09 04:01:12;;;;;;;24.65;12.63;;;;;;;;;;5033412;28;20404;-77
2024/01/09 04:03:38;;;;;;;27.83;13.55;;;;;;;;;;5042646;28;20032;-77
2024/01/09 04:06:04;;;;;;;27.67;13.32;;;;;;;;;;5055551;28;20392;-76
2024/01/09 04:08:30;;;;;;;31.63;13.73;;;;;;;;;;5050774;28;20471;-77
2024/01/09 04:10:56;;;;;;;29.13;12.88;;;;;;;;;;5043765;28;20036;-77
2024/01/09 04:13:22;;;;;;;28.65;13.20;;;;;;;;;;5035516;28;20041;-78
2024/01/09 04:15:49;;;;;;;26.98;12.75;;;;;;;;;;5035181;28;20029;-77
2024/01/09 04:18:15;;;;;;;27.27;13.85;;;;;;;;;;5050256;28;20117;-77
2024/01/09 04:20:41;;;;;;;27.65;12.35;;;;;;;;;;5051028;28;20140;-77
2024/01/09 04:23:07;;;;;;;29.33;13.32;;;;;;;;;;5038998;28;20048;-77
2024/01/09 04:25:33;;;;;;;29.23;13.02;;;;;;;;;;5035334;28;20032;-77
2024/01/09 04:27:59;;;;;;;32.97;13.52;;;;;;;;;;5034738;28;20033;-76
2024/01/09 04:30:26;;;;;;;32.90;14.63;;;;;;;;;;5036626;28;20494;-76
2024/01/09 04:32:53;;;;;;;29.77;13.57;;;;;;;;;;5037185;28;20053;-77
2024/01/09 04:35:19;;;;;;;32.83;13.75;;;;;;;;;;5045368;28;20104;-79
2024/01/09 04:37:45;;;;;;;28.50;13.75;;;;;;;;;;5057377;28;20040;-76
2024/01/09 04:40:11;;;;;;;30.02;13.32;;;;;;;;;;5059195;28;20075;-77
2024/01/09 04:42:37;;;;;;;31.25;14.50;;;;;;;;;;5056425;28;20048;-77
2024/01/09 04:45:03;;;;;;;32.30;14.05;;;;;;;;;;5064468;28;20025;-76
2024/01/09 04:47:30;;;;;;;29.80;12.80;;;;;;;;;;5055398;28;20025;-74
2024/01/09 04:49:56;;;;;;;32.80;14.82;;;;;;;;;;5056107;28;20025;-75
2024/01/09 04:52:22;;;;;;;28.20;14.70;;;;;;;;;;5058659;28;20009;-75
2024/01/09 04:54:48;;;;;;;29.60;14.05;;;;;;;;;;5067439;28;20085;-77
2024/01/09 04:57:14;;;;;;;29.33;12.98;;;;;;;;;;5037724;28;20416;-78
2024/01/09 04:59:42;;;;;;;30.80;14.95;;;;;;;;;;5044472;28;20030;-77
2024/01/09 05:02:08;;;;;;;28.17;13.05;;;;;;;;;;5046040;28;20030;-78
2024/01/09 05:04:34;;;;;;;31.77;14.07;;;;;;;;;;5040921;28;20056;-77
2024/01/09 05:07:00;;;;;;;32.33;15.02;;;;;;;;;;5048464;28;20391;-77
2024/01/09 05:09:26;;;;;;;29.90;13.38;;;;;;;;;;5041668;28;20025;-78
2024/01/09 05:11:53;;;;;;;34.83;14.93;;;;;;;;;;5043277;28;20037;-78
2024/01/09 05:14:19;;;;;;;28.05;13.13;;;;;;;;;;5064729;28;20040;-77
2024/01/09 05:16:45;;;;;;;28.08;13.23;;;;;;;;;;5068302;28;20048;-78
2024/01/09 05:19:11;;;;;;;27.98;14.02;;;;;;;;;;5049756;28;20025;-76
2024/01/09 05:21:37;;;;;;;33.15;15.55;;;;;;;;;;5057436;28;20025;-77
2024/01/09 05:24:03;;;;;;;29.25;14.35;;;;;;;;;;5053014;28;20028;-77
2024/01/09 05:26:30;;;;;;;32.05;14.15;;;;;;;;;;5043017;28;20059;-77
2024/01/09 05:28:56;;;;;;;36.08;14.57;;;;;;;;;;5045918;28;20066;-77
2024/01/09 05:31:23;;;;;;;28.90;13.73;;;;;;;;;;5033393;28;20021;-77
2024/01/09 05:33:49;;;;;;;30.13;13.73;;;;;;;;;;5040531;28;20025;-76
2024/01/09 05:36:22;;;;;;;29.60;14.00;;;;;;;;;;5035432;28;20025;-77
2024/01/09 05:38:50;;;;;;;31.52;15.15;;;;;;;;;;5050654;28;20032;-76
2024/01/09 05:41:22;;;;;;;32.45;14.65;;;;;;;;;;5033764;28;20025;-77
2024/01/09 05:43:52;;;;;;;32.65;14.05;;;;;;;;;;5041867;28;20038;-77
2024/01/09 05:46:18;;;;;;;30.30;13.55;;;;;;;;;;5039206;28;20022;-77
2024/01/09 05:48:44;;;;;;;31.70;14.40;;;;;;;;;;5037231;28;20495;-77
2024/01/09 05:51:11;;;;;;;33.47;13.10;;;;;;;;;;5036366;28;20033;-79
2024/01/09 05:53:37;;;;;;;33.35;14.70;;;;;;;;;;5036587;28;20396;-77
2024/01/09 05:56:06;;;;;;;31.08;14.25;;;;;;;;;;5037708;28;20064;-78
2024/01/09 05:58:36;;;;;;;27.70;13.25;;;;;;;;;;5035236;28;20028;-78
2024/01/09 06:01:02;;;;;;;23.17;11.98;;;;;;;;;;5036417;28;20431;-76
2024/01/09 06:03:28;;;;;;;23.90;12.05;;;;;;;;;;5037065;28;20412;-76
2024/01/09 06:05:54;;;;;;;31.92;14.15;;;;;;;;;;5037265;28;20051;-77
2024/01/09 06:08:20;;;;;;;26.05;12.73;;;;;;;;;;5056582;28;20373;-76
2024/01/09 06:10:46;;;;;;;27.92;13.85;;;;;;;;;;5048511;28;20044;-76
2024/01/09 06:13:12;;;;;;;29.58;14.50;;;;;;;;;;5048498;28;20029;-76
2024/01/09 06:15:39;;;;;;;31.35;13.80;;;;;;;;;;5055406;28;20032;-77
2024/01/09 06:18:05;;;;;;;35.08;15.40;;;;;;;;;;5044719;28;20029;-77
2024/01/09 06:20:31;;;;;;;33.17;14.70;;;;;;;;;;5036031;28;20427;-78
2024/01/09 06:22:57;;;;;;;36.67;14.88;;;;;;;;;;5040096;28;20025;-78
2024/01/09 06:25:23;;;;;;;32.53;14.05;;;;;;;;;;5053025;28;20082;-77
2024/01/09 06:27:49;;;;;;;30.30;13.93;;;;;;;;;;5043989;28;20037;-77
2024/01/09 06:30:16;;;;;;;27.30;12.68;;;;;;;;;;5040012;28;20029;-77
2024/01/09 06:32:42;;;;;;;35.13;16.08;;;;;;;;;;5039516;28;20102;-78
2024/01/09 06:35:08;;;;;;;30.60;13.23;;;;;;;;;;5048115;28;20021;-77
2024/01/09 06:37:34;;;;;;;30.40;13.52;;;;;;;;;;5043585;28;20029;-77
2024/01/09 06:40:01;;;;;;;32.10;13.45;;;;;;;;;;5041920;28;20059;-77
2024/01/09 06:42:27;;;;;;;30.30;13.77;;;;;;;;;;5038179;28;20038;-78
2024/01/09 06:44:53;;;;;;;30.55;13.57;;;;;;;;;;5039409;28;20044;-77
2024/01/09 06:47:19;;;;;;;30.02;13.05;;;;;;;;;;5037322;28;20400;-77
2024/01/09 06:49:45;;;;;;;27.23;12.90;;;;;;;;;;5037337;28;20617;-77
2024/01/09 06:52:11;;;;;;;32.92;14.65;;;;;;;;;;5037252;28;20033;-77
2024/01/09 06:54:37;;;;;;;37.38;14.65;;;;;;;;;;5037036;28;20025;-77
2024/01/09 06:57:03;;;;;;;27.67;12.20;;;;;;;;;;5041118;28;20033;-77
2024/01/09 06:59:30;;;;;;;24.65;12.25;;;;;;;;;;5047469;28;20151;-78
2024/01/09 07:01:56;;;;;;;31.88;15.57;;;;;;;;;;5043229;28;20034;-78
2024/01/09 07:04:23;;;;;;;27.27;13.55;;;;;;;;;;5045062;28;20056;-78
2024/01/09 07:06:49;;;;;;;26.50;12.15;;;;;;;;;;5042385;28;20030;-78
2024/01/09 07:09:15;;;;;;;30.65;14.93;;;;;;;;;;5056576;28;20111;-78
2024/01/09 07:11:41;;;;;;;32.15;13.90;;;;;;;;;;5047323;28;20025;-78
2024/01/09 07:14:09;;;;;;;35.03;14.38;;;;;;;;;;5051346;28;20395;-78
2024/01/09 07:16:36;;;;;;;35.47;14.15;;;;;;;;;;5057259;28;20009;-77
2024/01/09 07:19:02;;;;;;;33.22;14.52;;;;;;;;;;5061811;28;20025;-77
2024/01/09 07:21:28;;;;;;;30.52;13.65;;;;;;;;;;5052178;28;20056;-78
2024/01/09 07:23:54;;;;;;;32.50;14.50;;;;;;;;;;5045168;28;20022;-79
2024/01/09 07:26:20;;;;;;;30.90;13.88;;;;;;;;;;5061400;28;20028;-78
2024/01/09 07:28:46;;;;;;;35.83;13.32;;;;;;;;;;5047128;28;20014;-77
2024/01/09 07:31:12;;;;;;;34.97;14.88;;;;;;;;;;5041756;28;20033;-79
2024/01/09 07:33:38;;;;;;;31.60;14.25;;;;;;;;;;5040883;28;20025;-78
2024/01/09 07:36:06;;;;;;;33.40;14.43;;;;;;;;;;5043349;28;20129;-78
2024/01/09 07:38:32;;;;;;;28.27;12.65;;;;;;;;;;5049520;28;20043;-77
2024/01/09 07:40:58;;;;;;;32.45;15.20;;;;;;;;;;5043209;28;20056;-77
2024/01/09 07:43:24;;;;;;;28.75;12.82;;;;;;;;;;5043668;28;20385;-78
2024/01/09 07:45:50;;;;;;;29.85;13.40;;;;;;;;;;5048590;28;20017;-78
2024/01/09 07:48:16;;;;;;;33.10;14.15;;;;;;;;;;5054935;28;20033;-77
2024/01/09 07:50:42;;;;;;;29.85;13.32;;;;;;;;;;5050249;28;20020;-78
2024/01/09 07:53:08;;;;;;;27.70;13.45;;;;;;;;;;5044059;28;20507;-78
2024/01/09 07:55:34;;;;;;;31.48;14.10;;;;;;;;;;5054966;28;20024;-81
2024/01/09 07:58:01;;;;;;;30.40;12.60;;;;;;;;;;5042563;28;20472;-77
2024/01/09 08:00:28;;;;;;;29.58;13.85;;;;;;;;;;5035914;28;20138;-77
2024/01/09 08:02:54;;;;;;;31.92;13.30;;;;;;;;;;5042582;28;20108;-76
2024/01/09 08:05:20;;;;;;;34.65;13.88;;;;;;;;;;5032692;28;20029;-76
2024/01/09 08:07:46;;;;;;;28.88;12.60;;;;;;;;;;5047931;28;20252;-76
2024/01/09 08:10:12;;;;;;;29.63;14.32;;;;;;;;;;5044223;28;20022;-76
2024/01/09 08:12:38;;;;;;;32.60;13.27;;;;;;;;;;5041628;28;20072;-78
2024/01/09 08:15:05;;;;;;;33.72;14.27;;;;;;;;;;5033800;28;20051;-74
2024/01/09 08:17:31;;;;;;;27.45;12.98;;;;;;;;;;5035734;28;20025;-75
2024/01/09 08:19:57;;;;;;;31.88;13.35;;;;;;;;;;5041981;28;20112;-75
2024/01/09 08:22:23;;;;;;;29.92;12.88;;;;;;;;;;5033439;28;20051;-75
2024/01/09 08:24:49;;;;;;;32.92;13.77;;;;;;;;;;5033347;28;20061;-76
2024/01/09 08:27:15;;;;;;;31.75;13.50;;;;;;;;;;5033769;28;20025;-76
2024/01/09 08:29:43;;;;;;;29.33;13.13;;;;;;;;;;5033576;28;20045;-76
2024/01/09 08:32:11;;;;;;;32.17;13.02;;;;;;;;;;5033848;28;20030;-77
2024/01/09 08:34:37;;;;;;;28.65;12.32;;;;;;;;;;5034587;28;20026;-76
2024/01/09 08:37:03;;;;;;;26.95;12.68;;;;;;;;;;5042223;28;20461;-76
2024/01/09 08:39:29;;;;;;;33.90;15.43;;;;;;;;;;5043749;28;20068;-76
2024/01/09 08:41:56;;;;;;;31.65;13.75;;;;;;;;;;5045127;28;20496;-76
2024/01/09 08:44:25;;;;;;;33.17;12.68;;;;;;;;;;5032827;28;20810;-77
2024/01/09 08:46:51;;;;;;;30.50;13.60;;;;;;;;;;5034073;28;20608;-76
2024/01/09 08:49:17;;;;;;;30.52;14.27;;;;;;;;;;5034509;28;20025;-76
2024/01/09 08:51:43;;;;;;;30.52;14.30;;;;;;;;;;5036538;28;20093;-77
2024/01/09 08:54:09;;;;;;;26.80;12.45;;;;;;;;;;5038828;28;20021;-75
2024/01/09 08:56:36;;;;;;;29.52;12.73;;;;;;;;;;5039065;28;20025;-76
2024/01/09 08:59:02;;;;;;;31.05;12.52;;;;;;;;;;5046448;28;20079;-76
2024/01/09 09:01:30;;;;;;;33.72;14.32;;;;;;;;;;5037861;28;20084;-76
2024/01/09 09:03:57;;;;;;;29.92;12.20;;;;;;;;;;5039149;28;20025;-77
2024/01/09 09:06:23;;;;;;;32.50;13.73;;;;;;;;;;5038170;28;20512;-76
2024/01/09 09:08:49;;;;;;;28.08;11.82;;;;;;;;;;5054265;28;20029;-75
2024/01/09 09:11:16;;;;;;;28.30;11.88;;;;;;;;;;5051384;28;20032;-76
2024/01/09 09:13:43;;;;;;;24.80;10.93;;;;;;;;;;5059935;28;20025;-76
2024/01/09 09:16:09;;;;;;;24.38;11.82;;;;;;;;;;5044713;28;20025;-76
2024/01/09 09:18:35;;;;;;;27.00;12.85;;;;;;;;;;5056732;28;20040;-76
2024/01/09 09:21:03;;;;;;;33.60;12.70;;;;;;;;;;5040030;28;20037;-75
2024/01/09 09:23:30;;;;;;;27.55;12.38;;;;;;;;;;5037256;28;20072;-76
2024/01/09 09:25:57;;;;;;;32.83;13.95;;;;;;;;;;5044235;28;20029;-76
2024/01/09 09:28:23;;;;;;;27.77;12.73;;;;;;;;;;5039465;28;20041;-76
2024/01/09 09:30:49;;;;;;;31.33;12.73;;;;;;;;;;5042577;28;20086;-76
2024/01/09 09:33:15;;;;;;;28.73;13.30;;;;;;;;;;5039364;28;20035;-76
2024/01/09 09:35:41;;;;;;;26.05;11.55;;;;;;;;;;5053577;28;20026;-77
2024/01/09 09:38:07;;;;;;;27.10;12.50;;;;;;;;;;5044558;28;20032;-75
2024/01/09 09:40:33;;;;;;;21.80;10.70;;;;;;;;;;5054370;28;20163;-77
2024/01/09 09:43:02;;;;;;;24.00;9.75;;;;;;;;;;5036215;28;20401;-76
2024/01/09 09:45:31;;;;;;;29.42;13.80;;;;;;;;;;5037212;28;20112;-76
2024/01/09 09:47:57;;;;;;;30.13;13.25;;;;;;;;;;5037062;28;20052;-76
2024/01/09 09:50:24;;;;;;;27.40;11.88;;;;;;;;;;5036632;28;20480;-76
2024/01/09 09:52:50;;;;;;;23.00;11.73;;;;;;;;;;5037037;28;20045;-76
2024/01/09 09:55:18;;;;;;;27.23;12.15;;;;;;;;;;5036571;28;20495;-76
2024/01/09 09:57:45;;;;;;;30.10;13.57;;;;;;;;;;5036260;28;20052;-75
2024/01/09 10:00:11;;;;;;;26.77;11.48;;;;;;;;;;5040608;28;20029;-76
2024/01/09 10:02:58;;;;;;;36.42;13.98;;;;;;;;;;5036877;28;20045;-76
2024/01/09 10:05:25;;;;;;;26.17;12.18;;;;;;;;;;5037124;28;20381;-75
2024/01/09 10:07:53;;;;;;;29.95;12.60;;;;;;;;;;5045575;28;20061;-76
2024/01/09 10:10:20;;;;;;;25.75;11.63;;;;;;;;;;5044573;28;20023;-76
2024/01/09 10:12:48;;;;;;;26.77;11.90;;;;;;;;;;5035702;28;20021;-77
2024/01/09 10:15:17;;;;;;;32.05;13.70;;;;;;;;;;5046433;28;20029;-77
2024/01/09 10:17:44;;;;;;;31.60;12.77;;;;;;;;;;5054142;28;20033;-76
2024/01/09 10:20:10;;;;;;;28.05;13.45;;;;;;;;;;5036417;28;20057;-76
2024/01/09 10:22:38;;;;;;;31.00;13.52;;;;;;;;;;5037145;28;20531;-76
2024/01/09 10:25:07;;;;;;;31.00;13.30;;;;;;;;;;5038357;28;20507;-77
2024/01/09 10:27:37;;;;;;;32.50;14.27;;;;;;;;;;5049126;28;20029;-76
2024/01/09 10:30:06;;;;;;;34.10;14.73;;;;;;;;;;5047721;28;20520;-76
2024/01/09 10:32:35;;;;;;;28.42;14.65;;;;;;;;;;5036296;28;20048;-77
2024/01/09 10:35:07;;;;;;;33.45;13.13;;;;;;;;;;5045571;28;20416;-76
2024/01/09 10:37:37;;;;;;;33.05;13.48;;;;;;;;;;5048826;28;20028;-76
2024/01/09 10:40:06;;;;;;;28.90;12.65;;;;;;;;;;5048575;28;20049;-74
2024/01/09 10:42:34;;;;;;;31.92;12.82;;;;;;;;;;5042473;28;20361;-76
2024/01/09 10:45:00;;;;;;;25.70;11.95;;;;;;;;;;5037458;28;20048;-76
2024/01/09 10:47:27;;;;;;;25.90;12.35;;;;;;;;;;5046168;28;20029;-77
2024/01/09 10:49:54;;;;;;;28.80;11.75;;;;;;;;;;5039626;28;20043;-76
2024/01/09 10:52:20;;;;;;;25.60;11.00;;;;;;;;;;5038038;28;20025;-76
2024/01/09 10:54:47;;;;;;;24.98;11.23;;;;;;;;;;5042862;28;20033;-77
2024/01/09 10:57:17;;;;;;;21.67;10.93;;;;;;;;;;5055346;28;20025;-77
2024/01/09 10:59:44;;;;;;;29.17;11.65;;;;;;;;;;5047167;28;20108;-77
2024/01/09 11:02:21;;;;;;;31.85;12.93;;;;;;;;;;5036732;28;20112;-76
2024/01/09 11:04:47;;;;;;;31.38;12.20;;;;;;;;;;5036829;28;20452;-77
2024/01/09 11:07:14;;;;;;;26.33;11.95;;;;;;;;;;5046175;28;20479;-77
2024/01/09 11:09:50;;;;;;;25.17;11.98;;;;;;;;;;5040642;28;20025;-75
2024/01/09 11:12:19;;;;;;;27.70;12.98;;;;;;;;;;5047257;28;20085;-75
2024/01/09 11:14:49;;;;;;;24.73;12.65;;;;;;;;;;5051971;28;20025;-76
2024/01/09 11:17:16;;;;;;;25.45;12.52;;;;;;;;;;5061236;28;20092;-76
2024/01/09 11:19:42;;;;;;;24.55;11.60;;;;;;;;;;5064210;28;20092;-76
2024/01/09 11:22:15;;;;;;;27.77;12.07;;;;;;;;;;5044059;28;20076;-76
2024/01/09 11:24:41;;;;;;;30.33;13.18;;;;;;;;;;5034417;28;20071;-76
2024/01/09 11:27:11;;;;;;;27.88;12.95;;;;;;;;;;5041449;28;20025;-76
2024/01/09 11:29:57;;;;;;;29.27;12.88;;;;;;;;;;5030825;28;20029;-76
2024/01/09 11:32:28;;;;;;;28.17;11.13;;;;;;;;;;5036893;28;20030;-78
2024/01/09 11:35:13;;;;;;;26.33;12.57;;;;;;;;;;5034860;28;20045;-76
2024/01/09 11:37:40;;;;;;;21.20;10.98;;;;;;;;;;5044891;28;20037;-75
2024/01/09 11:40:10;;;;;;;22.88;10.63;;;;;;;;;;5040365;28;20026;-76
2024/01/09 11:42:43;;;;;;;25.38;10.38;;;;;;;;;;5030525;28;20037;-77
2024/01/09 11:45:09;;;;;;;27.58;12.13;;;;;;;;;;5035783;28;20045;-77
2024/01/09 11:47:39;;;;;;;28.45;12.68;;;;;;;;;;5044065;28;20025;-77
2024/01/09 11:50:09;;;;;;;29.77;13.52;;;;;;;;;;5035652;28;20034;-76
2024/01/09 11:52:35;;;;;;;26.30;13.18;;;;;;;;;;5035684;28;20021;-76
2024/01/09 11:55:05;;;;;;;25.45;12.57;;;;;;;;;;5049403;28;20492;-76
2024/01/09 11:57:32;;;;;;;24.05;12.90;;;;;;;;;;5037334;28;20034;-76
2024/01/09 12:00:00;;;;;;;29.60;13.10;;;;;;;;;;5025138;28;20353;-77
2024/01/09 12:02:26;;;;;;;23.27;11.65;;;;;;;;;;5043497;28;20040;-76
2024/01/09 12:04:53;;;;;;;27.92;11.48;;;;;;;;;;5035198;28;20541;-76
2024/01/09 12:07:19;;;;;;;29.08;12.63;;;;;;;;;;5043574;28;20059;-77
2024/01/09 12:09:49;;;;;;;26.83;11.70;;;;;;;;;;5043282;28;20101;-77
2024/01/09 12:12:22;;;;;;;23.88;11.13;;;;;;;;;;5034820;28;20042;-76
2024/01/09 12:14:53;;;;;;;27.60;12.90;;;;;;;;;;5035181;28;20472;-75
2024/01/09 12:17:41;;;;;;;26.00;10.85;;;;;;;;;;5036844;28;20037;-77
2024/01/09 12:20:10;;;;;;;28.45;13.57;;;;;;;;;;5039485;28;20541;-76
2024/01/09 12:22:36;;;;;;;29.48;12.80;;;;;;;;;;5038662;28;20025;-77
2024/01/09 12:25:03;;;;;;;28.58;13.00;;;;;;;;;;5035363;28;20025;-76
2024/01/09 12:27:30;;;;;;;25.88;13.02;;;;;;;;;;5042860;28;20519;-77
2024/01/09 12:29:58;;;;;;;25.58;12.88;;;;;;;;;;5034586;28;20033;-76
2024/01/09 12:32:24;;;;;;;28.70;12.48;;;;;;;;;;5035167;28;20052;-77
2024/01/09 12:34:50;;;;;;;27.55;11.43;;;;;;;;;;5043570;28;20029;-77
2024/01/09 12:37:17;;;;;;;29.33;13.13;;;;;;;;;;5043266;28;20029;-76
2024/01/09 12:39:44;;;;;;;26.80;12.93;;;;;;;;;;5017929;28;20048;-77
2024/01/09 12:42:11;;;;;;;26.50;11.68;;;;;;;;;;5016595;28;20555;-77
2024/01/09 12:44:43;;;;;;;25.92;10.75;;;;;;;;;;5019676;28;20065;-77
2024/01/09 12:47:10;;;;;;;26.38;10.88;;;;;;;;;;5021460;28;20038;-77
2024/01/09 12:49:43;;;;;;;20.13;10.07;;;;;;;;;;5029496;28;20396;-77
2024/01/09 12:52:09;;;;;;;20.67;10.05;;;;;;;;;;5028702;28;20072;-77
2024/01/09 12:54:35;;;;;;;24.33;10.93;;;;;;;;;;5023891;28;20543;-77
2024/01/09 12:57:01;;;;;;;22.95;10.30;;;;;;;;;;5037682;28;20040;-77
2024/01/09 12:59:28;;;;;;;24.02;10.38;;;;;;;;;;5039038;28;20130;-78
2024/01/09 13:01:54;;;;;;;24.98;10.63;;;;;;;;;;5054345;28;20030;-77
2024/01/09 13:04:21;;;;;;;26.90;11.10;;;;;;;;;;5036043;28;20535;-76
2024/01/09 13:06:47;;;;;;;26.67;10.95;;;;;;;;;;5027544;28;20076;-77
2024/01/09 13:09:13;;;;;;;27.13;12.40;;;;;;;;;;5023879;28;20033;-77
2024/01/09 13:11:43;;;;;;;25.85;12.13;;;;;;;;;;5024056;28;20030;-77
2024/01/09 13:14:13;;;;;;;28.40;11.23;;;;;;;;;;5027907;28;20018;-77
2024/01/09 13:16:40;;;;;;;27.25;12.43;;;;;;;;;;5028802;28;20021;-77
2024/01/09 13:19:06;;;;;;;27.48;10.88;;;;;;;;;;5043330;28;20053;-76
2024/01/09 13:21:33;;;;;;;25.00;10.75;;;;;;;;;;5043057;28;20136;-78
2024/01/09 13:23:59;;;;;;;22.63;11.00;;;;;;;;;;5053178;28;20033;-77
2024/01/09 13:26:26;;;;;;;24.98;12.00;;;;;;;;;;5035673;28;20026;-77
2024/01/09 13:28:52;;;;;;;25.52;11.60;;;;;;;;;;5038295;28;20017;-77
2024/01/09 13:31:18;;;;;;;22.50;10.73;;;;;;;;;;5025738;28;20018;-77
2024/01/09 13:33:44;;;;;;;23.83;11.25;;;;;;;;;;5042016;28;20056;-77
2024/01/09 13:36:10;;;;;;;27.30;11.13;;;;;;;;;;5028741;28;20022;-77
2024/01/09 13:38:36;;;;;;;23.55;10.43;;;;;;;;;;5048335;28;20088;-77
2024/01/09 13:41:07;;;;;;;24.33;11.27;;;;;;;;;;5041020;28;20566;-77
2024/01/09 13:43:33;;;;;;;26.02;10.95;;;;;;;;;;5040658;28;20045;-77
2024/01/09 13:46:02;;;;;;;22.20;10.40;;;;;;;;;;5041328;28;20491;-77
2024/01/09 13:48:28;;;;;;;25.63;10.75;;;;;;;;;;5048643;28;20072;-77
2024/01/09 13:50:55;;;;;;;28.27;12.15;;;;;;;;;;5042901;28;20041;-77
2024/01/09 13:53:22;;;;;;;23.92;10.82;;;;;;;;;;5042471;28;20025;-77
2024/01/09 13:55:48;;;;;;;25.45;11.23;;;;;;;;;;5042133;28;20029;-78
2024/01/09 13:58:18;;;;;;;20.92;10.80;;;;;;;;;;5027619;28;20040;-76
2024/01/09 14:00:44;;;;;;;26.70;10.52;;;;;;;;;;5047759;28;20040;-77
2024/01/09 14:03:10;;;;;;;21.05;9.95;;;;;;;;;;5035151;28;20035;-77
2024/01/09 14:05:37;;;;;;;23.10;10.25;;;;;;;;;;5019106;28;20060;-77
2024/01/09 14:08:05;;;;;;;18.92;9.20;;;;;;;;;;5029102;28;20029;-76
2024/01/09 14:10:31;;;;;;;21.00;9.10;;;;;;;;;;5040345;28;20021;-77
2024/01/09 14:12:57;;;;;;;22.58;10.07;;;;;;;;;;5043495;28;20017;-77
2024/01/09 14:15:24;;;;;;;23.40;11.20;;;;;;;;;;5026940;28;20033;-77